Time;durP1;ratioP1;P1;durP2;ratioP2;P2;SDS_P1;SDS_P2;PMS_P1;PMS_P2;Temp;Humidity;BMP_temperature;BMP_pressure;BME280_temperature;BME280_humidity;BME280_pressure;Samples;Min_cycle;Max_cycle;Signal;HPM_P1;HPM_P2
2022/03/20 00:02:06;;;;;;;28.27;18.23;;;1.40;99.90;;;;;;5071421;28;20037;-73
2022/03/20 00:04:37;;;;;;;29.77;17.85;;;1.30;99.90;;;;;;5086546;28;20044;-73
2022/03/20 00:07:11;;;;;;;27.92;17.85;;;1.30;99.90;;;;;;5054337;28;20058;-73
2022/03/20 00:09:44;;;;;;;29.73;17.58;;;1.30;99.90;;;;;;5053271;28;20499;-73
2022/03/20 00:12:15;;;;;;;26.38;17.42;;;1.30;99.90;;;;;;5053428;28;20051;-73
2022/03/20 00:14:47;;;;;;;27.05;17.73;;;1.20;99.90;;;;;;5053088;28;20045;-73
2022/03/20 00:17:20;;;;;;;30.35;17.65;;;1.20;99.90;;;;;;5086775;28;20495;-72
2022/03/20 00:19:52;;;;;;;31.40;18.85;;;1.20;99.90;;;;;;5070773;28;20041;-73
2022/03/20 00:22:25;;;;;;;27.05;17.42;;;1.20;99.90;;;;;;5052983;28;20051;-73
2022/03/20 00:24:58;;;;;;;30.23;18.80;;;1.20;99.90;;;;;;5054148;28;20410;-73
2022/03/20 00:27:32;;;;;;;27.13;17.83;;;1.20;99.90;;;;;;5054299;28;20120;-73
2022/03/20 00:30:04;;;;;;;27.95;17.38;;;1.10;99.90;;;;;;5086492;28;20044;-72
2022/03/20 00:32:36;;;;;;;32.45;18.33;;;1.00;99.90;;;;;;5070680;28;20041;-73
2022/03/20 00:35:08;;;;;;;27.38;17.83;;;1.00;99.90;;;;;;5089826;28;20292;-73
2022/03/20 00:37:40;;;;;;;31.17;18.00;;;1.00;99.90;;;;;;5090481;28;20035;-73
2022/03/20 00:40:12;;;;;;;31.33;18.13;;;1.00;99.90;;;;;;5080977;28;20043;-73
2022/03/20 00:42:43;;;;;;;29.10;17.23;;;1.00;99.90;;;;;;5076459;28;20051;-71
2022/03/20 00:45:15;;;;;;;30.00;18.17;;;1.00;99.90;;;;;;5089787;28;20050;-71
2022/03/20 00:47:48;;;;;;;28.00;18.38;;;1.00;99.90;;;;;;5099072;28;20142;-73
2022/03/20 00:50:20;;;;;;;29.63;19.95;;;1.00;99.90;;;;;;5082030;28;20036;-72
2022/03/20 00:52:52;;;;;;;31.05;19.92;;;0.90;99.90;;;;;;5080533;28;20043;-72
2022/03/20 00:55:23;;;;;;;29.85;18.63;;;0.90;99.90;;;;;;5097534;28;20035;-72
2022/03/20 00:57:55;;;;;;;27.08;18.40;;;0.90;99.90;;;;;;5097195;28;20397;-72
2022/03/20 01:00:27;;;;;;;30.05;19.10;;;0.90;99.90;;;;;;5098126;28;20036;-72
2022/03/20 01:02:59;;;;;;;31.15;19.13;;;0.80;99.90;;;;;;5095915;28;20050;-72
2022/03/20 01:05:26;;;;;;;30.42;17.98;;;0.80;99.90;;;;;;5097377;28;20561;-72
2022/03/20 01:07:52;;;;;;;31.38;20.67;;;0.80;99.90;;;;;;5097442;28;20126;-72
2022/03/20 01:10:24;;;;;;;30.73;19.13;;;0.70;99.90;;;;;;5115465;28;20047;-72
2022/03/20 01:12:56;;;;;;;31.17;20.80;;;0.70;99.90;;;;;;5096975;28;20512;-72
2022/03/20 01:15:28;;;;;;;30.75;21.08;;;0.70;99.90;;;;;;5098241;28;20057;-72
2022/03/20 01:18:00;;;;;;;36.58;24.25;;;0.70;99.90;;;;;;5098029;28;20039;-72
2022/03/20 01:20:26;;;;;;;30.02;20.80;;;0.70;99.90;;;;;;5097120;28;20138;-72
2022/03/20 01:22:58;;;;;;;32.85;21.55;;;0.60;99.90;;;;;;5080574;28;20047;-72
2022/03/20 01:25:30;;;;;;;29.92;20.75;;;0.60;99.90;;;;;;5097978;28;20097;-71
2022/03/20 01:28:02;;;;;;;29.63;19.13;;;0.60;99.90;;;;;;5080562;28;20043;-72
2022/03/20 01:30:34;;;;;;;39.55;21.17;;;0.60;99.90;;;;;;5115157;28;20035;-72
2022/03/20 01:33:02;;;;;;;28.85;17.50;;;0.60;99.90;;;;;;5096776;28;20115;-72
2022/03/20 01:35:35;;;;;;;34.17;19.45;;;0.50;99.90;;;;;;5080651;28;20043;-72
2022/03/20 01:38:07;;;;;;;24.85;15.30;;;0.50;99.90;;;;;;5080624;28;20035;-72
2022/03/20 01:40:39;;;;;;;29.05;18.33;;;0.50;99.90;;;;;;5080593;28;20506;-72
2022/03/20 01:43:10;;;;;;;30.90;19.17;;;0.50;99.90;;;;;;5096439;28;20142;-72
2022/03/20 01:45:42;;;;;;;31.80;18.80;;;0.50;99.90;;;;;;5114911;28;20039;-72
2022/03/20 01:48:14;;;;;;;30.15;17.38;;;0.60;99.90;;;;;;5080324;28;20039;-72
2022/03/20 01:50:46;;;;;;;29.30;18.02;;;0.50;99.90;;;;;;5097552;28;20060;-72
2022/03/20 01:53:19;;;;;;;31.17;19.13;;;0.60;99.90;;;;;;5097038;28;20516;-72
2022/03/20 01:55:51;;;;;;;33.60;19.70;;;0.60;99.90;;;;;;5096570;28;20050;-72
2022/03/20 01:58:23;;;;;;;31.90;19.60;;;0.60;99.90;;;;;;5096263;28;20040;-72
2022/03/20 02:00:54;;;;;;;30.85;19.80;;;0.50;99.90;;;;;;5113623;28;20066;-72
2022/03/20 02:03:26;;;;;;;34.40;19.30;;;0.50;99.90;;;;;;5095460;28;20040;-72
2022/03/20 02:06:01;;;;;;;30.85;20.83;;;0.50;99.90;;;;;;5096600;28;20119;-72
2022/03/20 02:08:36;;;;;;;31.65;20.63;;;0.50;99.90;;;;;;5095491;28;20047;-72
2022/03/20 02:11:07;;;;;;;36.17;22.67;;;0.50;99.90;;;;;;5079475;28;20405;-72
2022/03/20 02:13:40;;;;;;;31.17;19.60;;;0.50;99.90;;;;;;5096074;28;20502;-72
2022/03/20 02:16:12;;;;;;;31.98;21.27;;;0.50;99.90;;;;;;5095524;28;20050;-72
2022/03/20 02:18:45;;;;;;;29.50;18.88;;;0.50;99.90;;;;;;5096368;28;20062;-72
2022/03/20 02:21:34;;;;;;;31.42;18.35;;;0.50;99.90;;;;;;5095337;28;20409;-72
2022/03/20 02:24:34;;;;;;;31.33;19.75;;;0.50;99.90;;;;;;5094974;28;20462;-72
2022/03/20 02:27:15;;;;;;;28.67;18.48;;;0.40;99.90;;;;;;5095271;28;20453;-72
2022/03/20 02:29:52;;;;;;;31.27;20.10;;;0.40;99.90;;;;;;5079242;28;20039;-72
2022/03/20 02:32:29;;;;;;;31.48;19.30;;;0.30;99.90;;;;;;5095916;28;20043;-72
2022/03/20 02:34:59;;;;;;;29.23;18.35;;;0.40;99.90;;;;;;5095142;28;20138;-72
2022/03/20 02:37:34;;;;;;;26.15;17.77;;;0.30;99.90;;;;;;5096174;28;20410;-72
2022/03/20 02:40:06;;;;;;;22.23;15.55;;;0.30;99.90;;;;;;5094982;28;20126;-72
2022/03/20 02:42:40;;;;;;;32.10;18.80;;;0.30;99.90;;;;;;5094741;28;20048;-72
2022/03/20 02:45:14;;;;;;;26.02;14.27;;;0.30;99.90;;;;;;5095837;28;20135;-72
2022/03/20 02:47:47;;;;;;;31.38;19.27;;;0.30;99.90;;;;;;5113063;28;20126;-72
2022/03/20 02:50:25;;;;;;;31.00;20.02;;;0.20;99.90;;;;;;5078749;28;20039;-72
2022/03/20 02:53:02;;;;;;;32.80;19.50;;;0.00;99.90;;;;;;5094388;28;20043;-72
2022/03/20 02:55:35;;;;;;;35.35;21.63;;;-0.10;99.90;;;;;;5095657;28;20035;-72
2022/03/20 02:58:13;;;;;;;33.90;19.27;;;-0.20;99.90;;;;;;5095678;28;20114;-72
2022/03/20 03:00:45;;;;;;;33.58;20.42;;;-0.20;99.90;;;;;;5112874;28;20397;-72
2022/03/20 03:03:17;;;;;;;32.65;19.70;;;-0.20;99.90;;;;;;5112491;28;20043;-72
2022/03/20 03:05:50;;;;;;;30.97;19.47;;;-0.20;99.90;;;;;;5094318;28;20039;-72
2022/03/20 03:11:12;;;;;;;30.65;20.65;;;-0.20;99.90;;;;;;5094374;28;20403;-72
2022/03/20 03:13:44;;;;;;;33.30;19.65;;;-0.20;99.90;;;;;;5093206;28;20406;-71
2022/03/20 03:16:16;;;;;;;35.85;19.95;;;-0.10;99.90;;;;;;5094136;28;20046;-72
2022/03/20 03:18:48;;;;;;;38.38;19.73;;;-0.10;99.90;;;;;;5078127;28;20409;-72
2022/03/20 03:21:20;;;;;;;31.23;18.65;;;-0.20;99.90;;;;;;5077990;28;20040;-72
2022/03/20 03:23:54;;;;;;;34.35;19.52;;;-0.20;99.90;;;;;;5094722;28;20035;-72
2022/03/20 03:26:26;;;;;;;30.73;18.73;;;-0.20;99.90;;;;;;5112299;28;20494;-72
2022/03/20 03:28:59;;;;;;;31.35;18.65;;;-0.20;99.90;;;;;;5112323;28;20038;-72
2022/03/20 03:31:31;;;;;;;23.10;14.43;;;-0.10;99.90;;;;;;5094103;28;20050;-72
2022/03/20 03:36:54;;;;;;;28.70;17.98;;;-0.20;99.90;;;;;;5112048;28;20032;-72
2022/03/20 03:39:26;;;;;;;29.83;18.07;;;-0.20;99.90;;;;;;5112483;28;20050;-72
2022/03/20 03:41:57;;;;;;;33.35;18.70;;;-0.20;99.90;;;;;;5093902;28;20413;-71
2022/03/20 03:44:30;;;;;;;29.13;17.52;;;-0.20;99.90;;;;;;5094474;28;20383;-72
2022/03/20 03:47:02;;;;;;;24.43;14.10;;;-0.20;99.90;;;;;;5077521;28;20048;-72
2022/03/20 03:49:34;;;;;;;30.70;18.17;;;-0.20;99.90;;;;;;5112008;28;20138;-72
2022/03/20 03:52:06;;;;;;;30.85;18.35;;;-0.20;99.90;;;;;;5094551;28;20035;-72
2022/03/20 03:54:38;;;;;;;31.20;19.48;;;-0.20;99.90;;;;;;5077260;28;20051;-72
2022/03/20 03:57:09;;;;;;;33.00;19.20;;;-0.20;99.90;;;;;;5093437;28;20036;-72
2022/03/20 03:59:41;;;;;;;30.90;18.40;;;-0.20;99.90;;;;;;5077428;28;20485;-72
2022/03/20 04:02:14;;;;;;;32.22;19.95;;;-0.20;99.90;;;;;;5111671;28;20126;-72
2022/03/20 04:04:47;;;;;;;32.42;19.30;;;-0.20;99.90;;;;;;5093263;28;20509;-72
2022/03/20 04:07:21;;;;;;;28.35;18.15;;;-0.30;99.90;;;;;;5093307;28;20046;-72
2022/03/20 04:09:53;;;;;;;34.67;20.23;;;-0.30;99.90;;;;;;5111550;28;20055;-72
2022/03/20 04:12:24;;;;;;;31.63;18.88;;;-0.30;99.90;;;;;;5093036;28;20498;-72
2022/03/20 04:15:02;;;;;;;32.55;19.85;;;-0.30;99.90;;;;;;5111586;28;20043;-72
2022/03/20 04:17:34;;;;;;;31.98;18.60;;;-0.30;99.90;;;;;;5094275;28;20405;-72
2022/03/20 04:20:07;;;;;;;29.88;17.60;;;-0.30;99.90;;;;;;5093784;28;20476;-72
2022/03/20 04:22:36;;;;;;;31.75;18.95;;;-0.20;99.90;;;;;;5076856;28;20134;-72
2022/03/20 04:25:11;;;;;;;27.48;18.10;;;-0.20;99.90;;;;;;5111891;28;20044;-72
2022/03/20 04:27:42;;;;;;;31.33;19.20;;;-0.20;99.90;;;;;;5093776;28;20047;-72
2022/03/20 04:30:14;;;;;;;30.85;17.30;;;-0.20;99.90;;;;;;5093730;28;20039;-72
2022/03/20 04:32:46;;;;;;;30.92;19.23;;;-0.20;99.90;;;;;;5093303;28;20039;-72
2022/03/20 04:35:25;;;;;;;30.63;18.13;;;-0.10;99.90;;;;;;5077547;28;20040;-72
2022/03/20 04:37:57;;;;;;;29.27;18.17;;;-0.10;99.90;;;;;;5093587;28;20039;-72
2022/03/20 04:40:29;;;;;;;32.80;19.30;;;-0.10;99.90;;;;;;5111828;28;20047;-72
2022/03/20 04:43:01;;;;;;;33.25;17.77;;;-0.10;99.90;;;;;;5094361;28;20458;-72
2022/03/20 04:45:32;;;;;;;31.98;19.67;;;-0.10;99.90;;;;;;5093875;28;20043;-72
2022/03/20 04:59:20;;;;;;;33.78;20.13;;;-0.20;99.90;;;;;;5111775;28;20497;-72
2022/03/20 05:01:52;;;;;;;30.05;19.17;;;-0.30;99.90;;;;;;5093335;28;20035;-72
2022/03/20 05:04:24;;;;;;;30.48;18.90;;;-0.30;99.90;;;;;;5066748;28;20048;-72
2022/03/20 05:06:56;;;;;;;31.77;18.85;;;-0.30;99.90;;;;;;5081418;28;20047;-72
2022/03/20 05:15:12;;;;;;;36.15;21.50;;;-0.60;99.90;;;;;;5090801;28;20106;-72
2022/03/20 05:17:43;;;;;;;31.75;19.67;;;-0.70;99.90;;;;;;5090778;28;20512;-72
2022/03/20 05:20:16;;;;;;;30.75;18.52;;;-0.70;99.90;;;;;;5089696;28;20513;-72
2022/03/20 05:22:48;;;;;;;33.67;19.67;;;-0.70;99.90;;;;;;5090288;28;20044;-72
2022/03/20 05:25:20;;;;;;;34.35;19.88;;;-0.70;99.90;;;;;;5090710;28;20048;-72
2022/03/20 05:27:52;;;;;;;32.35;19.05;;;-0.70;99.90;;;;;;5089235;28;20054;-72
2022/03/20 05:30:25;;;;;;;37.00;19.55;;;-0.70;99.90;;;;;;5089698;28;20048;-72
2022/03/20 05:32:57;;;;;;;32.97;19.08;;;-0.70;99.90;;;;;;5090080;28;20044;-72
2022/03/20 05:35:25;;;;;;;31.23;18.23;;;-0.60;99.90;;;;;;5072198;28;20509;-72
2022/03/20 05:37:56;;;;;;;32.95;18.55;;;-0.60;99.90;;;;;;5076841;28;20070;-72
2022/03/20 05:40:28;;;;;;;31.58;19.25;;;-0.50;99.90;;;;;;5076145;28;20044;-72
2022/03/20 05:43:00;;;;;;;32.47;20.23;;;-0.50;99.90;;;;;;5075756;28;20048;-72
2022/03/20 05:45:32;;;;;;;30.95;18.45;;;-0.50;99.90;;;;;;5076959;28;20495;-72
2022/03/20 05:48:05;;;;;;;31.23;18.05;;;-0.50;99.90;;;;;;5075958;28;20048;-72
2022/03/20 05:50:36;;;;;;;28.92;17.90;;;-0.50;99.90;;;;;;5078473;28;20050;-72
2022/03/20 05:53:08;;;;;;;28.60;17.77;;;-0.50;99.90;;;;;;5092074;28;20042;-72
2022/03/20 05:58:30;;;;;;;30.70;18.00;;;-0.50;99.90;;;;;;5092716;28;20047;-72
2022/03/20 06:01:02;;;;;;;28.73;18.17;;;-0.50;99.90;;;;;;5092769;28;20402;-71
2022/03/20 06:03:31;;;;;;;30.92;17.58;;;-0.40;99.90;;;;;;5092053;28;20510;-72
2022/03/20 06:06:07;;;;;;;32.78;18.42;;;-0.40;99.90;;;;;;5093862;28;20499;-72
2022/03/20 06:08:42;;;;;;;27.63;17.23;;;-0.30;99.90;;;;;;5077365;28;20409;-72
2022/03/20 06:11:09;;;;;;;32.97;19.05;;;-0.30;99.90;;;;;;5075818;28;20056;-72
2022/03/20 06:13:41;;;;;;;28.83;17.60;;;-0.30;99.90;;;;;;5091835;28;20490;-72
2022/03/20 06:16:13;;;;;;;28.80;17.83;;;-0.20;99.90;;;;;;5093611;28;20379;-72
2022/03/20 06:18:45;;;;;;;30.80;18.95;;;-0.20;99.90;;;;;;5092511;28;20036;-72
2022/03/20 06:21:18;;;;;;;31.48;18.85;;;-0.10;99.90;;;;;;5076237;28;20058;-72
2022/03/20 06:23:50;;;;;;;32.35;18.13;;;-0.10;99.90;;;;;;5091806;28;20054;-72
2022/03/20 06:26:23;;;;;;;30.15;18.67;;;-0.10;99.90;;;;;;5093326;28;20434;-72
2022/03/20 06:28:51;;;;;;;35.45;20.50;;;0.00;99.90;;;;;;5092033;28;20155;-72
2022/03/20 06:31:23;;;;;;;34.83;19.57;;;0.00;99.90;;;;;;5082504;28;20044;-72
2022/03/20 06:33:54;;;;;;;35.72;21.13;;;0.10;99.90;;;;;;5058713;28;20801;-72
2022/03/20 06:36:27;;;;;;;35.22;19.80;;;0.20;99.90;;;;;;5093176;28;20041;-72
2022/03/20 06:38:59;;;;;;;33.25;18.90;;;0.30;99.90;;;;;;5075178;28;20517;-72
2022/03/20 06:41:31;;;;;;;34.63;21.33;;;0.30;99.90;;;;;;5075021;28;20056;-72
2022/03/20 06:44:04;;;;;;;32.72;19.05;;;0.40;99.90;;;;;;5058607;28;20046;-72
2022/03/20 06:46:37;;;;;;;41.08;24.67;;;0.40;99.90;;;;;;5075702;28;20050;-72
2022/03/20 06:49:10;;;;;;;46.20;25.85;;;0.40;99.90;;;;;;5059013;28;20482;-72
2022/03/20 06:51:42;;;;;;;39.92;23.75;;;0.50;99.90;;;;;;5074585;28;20047;-72
2022/03/20 06:54:14;;;;;;;41.45;23.80;;;0.50;99.90;;;;;;5099615;28;20035;-72
2022/03/20 06:56:40;;;;;;;35.95;22.40;;;0.50;99.90;;;;;;5073893;28;20131;-73
2022/03/20 06:59:14;;;;;;;40.53;22.23;;;0.60;99.90;;;;;;5066958;28;20043;-76
2022/03/20 07:01:46;;;;;;;36.22;21.83;;;0.60;99.90;;;;;;5070813;28;20028;-71
2022/03/20 07:04:18;;;;;;;36.60;22.40;;;0.60;99.90;;;;;;5088586;28;20047;-72
2022/03/20 07:06:49;;;;;;;35.72;21.63;;;0.70;99.90;;;;;;5084887;28;20486;-72
2022/03/20 07:09:22;;;;;;;37.38;22.98;;;0.70;99.90;;;;;;5085327;28;20040;-70
2022/03/20 07:11:49;;;;;;;32.95;21.33;;;0.80;99.90;;;;;;5083118;28;20040;-72
2022/03/20 07:14:21;;;;;;;39.08;21.85;;;0.80;99.90;;;;;;5068484;28;20044;-71
2022/03/20 07:16:53;;;;;;;35.13;21.05;;;0.80;99.90;;;;;;5103415;28;20039;-71
2022/03/20 07:19:25;;;;;;;39.08;23.85;;;0.90;99.90;;;;;;5088676;28;20040;-71
2022/03/20 07:21:58;;;;;;;36.72;21.98;;;1.00;99.90;;;;;;5072113;28;20046;-71
2022/03/20 07:24:30;;;;;;;40.55;23.08;;;1.10;99.90;;;;;;5078458;28;20040;-72
2022/03/20 07:29:53;;;;;;;41.15;24.33;;;1.10;99.90;;;;;;5078125;28;20040;-71
2022/03/20 07:32:20;;;;;;;36.80;23.35;;;1.30;99.90;;;;;;5092529;28;20513;-72
2022/03/20 07:34:52;;;;;;;35.78;22.40;;;1.30;99.90;;;;;;5080491;28;20494;-72
2022/03/20 07:37:26;;;;;;;37.63;22.48;;;1.40;99.90;;;;;;5079146;28;20032;-72
2022/03/20 07:39:58;;;;;;;31.38;19.40;;;1.50;99.90;;;;;;5092003;28;20498;-72
2022/03/20 07:42:26;;;;;;;40.08;23.70;;;1.60;99.90;;;;;;5091013;28;20127;-72
2022/03/20 07:45:00;;;;;;;35.33;21.48;;;1.70;99.90;;;;;;5090860;28;20498;-71
2022/03/20 07:47:31;;;;;;;36.08;22.48;;;1.80;99.90;;;;;;5102160;27;20036;-72
2022/03/20 07:49:59;;;;;;;37.30;22.15;;;1.90;99.90;;;;;;5093699;28;20050;-72
2022/03/20 07:52:34;;;;;;;38.92;24.35;;;2.00;99.90;;;;;;5076672;28;20043;-72
2022/03/20 07:55:06;;;;;;;51.67;33.90;;;2.10;99.90;;;;;;5090940;28;20394;-72
2022/03/20 07:57:43;;;;;;;37.65;23.35;;;2.20;99.90;;;;;;5089974;28;20035;-71
2022/03/20 08:00:17;;;;;;;42.13;27.10;;;2.30;99.90;;;;;;5073567;28;20063;-72
2022/03/20 08:02:51;;;;;;;41.05;28.20;;;2.40;99.90;;;;;;5072749;28;20143;-71
2022/03/20 08:05:25;;;;;;;39.00;25.13;;;2.50;99.90;;;;;;5090013;28;20047;-71
2022/03/20 08:07:56;;;;;;;34.30;22.33;;;2.60;99.90;;;;;;5075180;28;20050;-71
2022/03/20 08:10:29;;;;;;;36.97;22.77;;;2.70;99.90;;;;;;5101684;27;20040;-72
2022/03/20 08:13:00;;;;;;;34.33;21.83;;;2.90;99.90;;;;;;5083684;28;20038;-72
2022/03/20 08:15:32;;;;;;;39.15;23.38;;;3.00;99.90;;;;;;5075158;28;20520;-72
2022/03/20 08:18:06;;;;;;;33.45;21.25;;;3.10;99.90;;;;;;5086275;28;20033;-72
2022/03/20 08:20:39;;;;;;;33.53;21.45;;;3.30;99.90;;;;;;5088286;28;20051;-72
2022/03/20 08:23:11;;;;;;;38.75;25.95;;;3.40;99.90;;;;;;5088305;28;20410;-71
2022/03/20 08:25:43;;;;;;;39.83;25.80;;;3.60;99.90;;;;;;5073052;28;20040;-72
2022/03/20 08:28:15;;;;;;;32.78;21.75;;;3.70;99.90;;;;;;5071307;28;20046;-71
2022/03/20 08:30:47;;;;;;;31.45;20.20;;;3.90;99.90;;;;;;5095203;28;20036;-72
2022/03/20 08:33:18;;;;;;;36.83;22.23;;;4.00;99.90;;;;;;5064412;28;20464;-72
2022/03/20 08:35:45;;;;;;;42.58;25.48;;;4.20;99.90;;;;;;5090364;28;20111;-72
2022/03/20 08:38:17;;;;;;;41.47;25.30;;;4.30;99.90;;;;;;5087397;28;20028;-71
2022/03/20 08:40:44;;;;;;;40.03;25.10;;;4.50;99.90;;;;;;5059669;28;20047;-72
2022/03/20 08:43:16;;;;;;;38.50;24.48;;;4.60;99.90;;;;;;5072912;28;20044;-72
2022/03/20 08:45:48;;;;;;;33.75;22.10;;;4.70;99.90;;;;;;5055835;28;20577;-71
2022/03/20 08:48:19;;;;;;;35.88;22.45;;;4.90;99.90;;;;;;5089948;28;20707;-72
2022/03/20 08:50:51;;;;;;;31.48;20.00;;;5.00;99.90;;;;;;5080402;28;20050;-71
2022/03/20 08:53:25;;;;;;;31.67;20.45;;;5.10;99.90;;;;;;5069603;28;20044;-73
2022/03/20 08:55:56;;;;;;;34.78;23.00;;;5.20;99.90;;;;;;5090616;28;20032;-73
2022/03/20 08:58:28;;;;;;;29.00;19.58;;;5.40;99.90;;;;;;5078060;28;20036;-72
2022/03/20 09:01:00;;;;;;;28.50;18.63;;;5.50;99.90;;;;;;5070867;28;20036;-72
2022/03/20 09:03:32;;;;;;;29.05;19.77;;;5.60;99.90;;;;;;5083288;28;20528;-73
2022/03/20 09:06:03;;;;;;;40.40;26.45;;;5.80;99.90;;;;;;5072237;28;20513;-72
2022/03/20 09:08:36;;;;;;;29.48;18.95;;;5.90;99.90;;;;;;5072668;28;20078;-72
2022/03/20 09:11:08;;;;;;;33.53;22.05;;;6.00;99.90;;;;;;5057610;28;20133;-72
2022/03/20 09:13:39;;;;;;;36.72;23.40;;;6.10;99.90;;;;;;5074531;28;20044;-72
2022/03/20 09:19:04;;;;;;;36.70;22.10;;;6.30;99.90;;;;;;5094607;28;20127;-72
2022/03/20 09:21:36;;;;;;;31.05;20.38;;;6.50;99.90;;;;;;5076500;28;20093;-72
2022/03/20 09:24:08;;;;;;;32.72;21.23;;;6.60;99.90;;;;;;5097202;28;20131;-72
2022/03/20 09:26:35;;;;;;;32.83;21.45;;;6.60;99.90;;;;;;5083103;28;20050;-72
2022/03/20 09:29:03;;;;;;;43.28;27.95;;;6.70;99.90;;;;;;5104096;28;20624;-72
2022/03/20 09:31:35;;;;;;;32.85;23.35;;;6.90;99.90;;;;;;5076104;28;20131;-72
2022/03/20 09:34:07;;;;;;;31.15;21.77;;;7.00;99.90;;;;;;5072540;28;20409;-72
2022/03/20 09:36:35;;;;;;;36.55;21.90;;;7.10;99.90;;;;;;5074559;28;20140;-72
2022/03/20 09:39:07;;;;;;;29.75;19.83;;;7.20;99.90;;;;;;5074432;28;20040;-72
2022/03/20 09:41:43;;;;;;;29.88;19.00;;;7.40;99.90;;;;;;5116297;27;20066;-72
2022/03/20 09:44:17;;;;;;;33.28;21.60;;;7.50;99.90;;;;;;5092330;28;20040;-72
2022/03/20 09:46:49;;;;;;;29.73;20.55;;;7.70;99.90;;;;;;5091858;28;20050;-72
2022/03/20 09:49:25;;;;;;;27.90;19.40;;;7.90;99.90;;;;;;5092836;28;20051;-72
2022/03/20 09:51:57;;;;;;;29.52;21.13;;;8.00;99.90;;;;;;5076815;28;20050;-72
2022/03/20 09:54:29;;;;;;;27.80;19.25;;;8.10;99.90;;;;;;5092425;28;20525;-72
2022/03/20 09:57:05;;;;;;;29.42;20.52;;;8.30;99.90;;;;;;5092343;28;20040;-72
2022/03/20 09:59:39;;;;;;;29.33;20.23;;;8.40;99.90;;;;;;5093543;28;20413;-72
2022/03/20 10:02:11;;;;;;;28.45;19.50;;;8.50;99.90;;;;;;5076298;28;20793;-72
2022/03/20 10:05:07;;;;;;;31.65;19.55;;;8.60;99.90;;;;;;5076094;28;20513;-72
2022/03/20 10:07:42;;;;;;;28.02;20.30;;;8.70;99.90;;;;;;5075604;28;20039;-72
2022/03/20 10:10:28;;;;;;;32.22;19.70;;;8.90;99.90;;;;;;5096452;28;20050;-72
2022/03/20 10:13:00;;;;;;;29.13;19.25;;;9.00;99.90;;;;;;5089781;28;20036;-72
2022/03/20 10:15:35;;;;;;;30.80;21.20;;;9.20;99.90;;;;;;5074724;28;20514;-72
2022/03/20 10:18:19;;;;;;;30.38;20.33;;;9.30;99.90;;;;;;5075585;28;20036;-72
2022/03/20 10:21:00;;;;;;;31.33;21.15;;;9.40;99.90;;;;;;5091611;28;20123;-72
2022/03/20 10:23:33;;;;;;;29.05;20.88;;;9.50;99.10;;;;;;5093395;28;20033;-72
2022/03/20 10:26:19;;;;;;;33.15;21.27;;;9.60;99.20;;;;;;5085404;28;20045;-72
2022/03/20 10:28:55;;;;;;;33.88;20.83;;;9.70;99.10;;;;;;5080729;28;20040;-72
2022/03/20 10:31:27;;;;;;;27.38;19.55;;;9.80;98.10;;;;;;5095750;28;20514;-72
2022/03/20 10:34:05;;;;;;;29.35;20.27;;;9.90;97.80;;;;;;5095153;28;20108;-72
2022/03/20 10:36:37;;;;;;;26.67;19.75;;;10.10;97.70;;;;;;5094644;28;20038;-72
2022/03/20 10:39:19;;;;;;;28.98;19.88;;;10.20;96.10;;;;;;5097043;28;20115;-72
2022/03/20 10:41:56;;;;;;;27.63;19.60;;;10.30;96.00;;;;;;5112685;28;20097;-72
2022/03/20 10:44:31;;;;;;;32.78;21.83;;;10.40;95.90;;;;;;5077790;28;20043;-72
2022/03/20 10:47:16;;;;;;;28.35;19.48;;;10.50;96.20;;;;;;5093589;28;20044;-72
2022/03/20 10:50:08;;;;;;;26.88;19.67;;;10.60;94.90;;;;;;5086902;28;20040;-74
2022/03/20 10:52:40;;;;;;;26.05;18.95;;;10.70;93.70;;;;;;5091632;28;20486;-72
2022/03/20 10:55:12;;;;;;;26.73;18.95;;;10.80;93.10;;;;;;5057654;28;20131;-72
2022/03/20 10:57:44;;;;;;;26.73;19.73;;;10.90;93.20;;;;;;5074003;28;20398;-72
2022/03/20 11:00:16;;;;;;;26.33;19.33;;;11.00;92.20;;;;;;5097469;28;20139;-72
2022/03/20 11:02:48;;;;;;;27.90;19.98;;;11.10;92.20;;;;;;5057238;28;20040;-72
2022/03/20 11:05:20;;;;;;;29.83;20.25;;;11.20;92.20;;;;;;5091522;28;20046;-72
2022/03/20 11:07:52;;;;;;;29.73;19.48;;;11.30;91.60;;;;;;5069331;28;20037;-72
2022/03/20 11:10:25;;;;;;;26.73;19.23;;;11.40;90.80;;;;;;5107252;28;20040;-72
2022/03/20 11:12:57;;;;;;;28.52;19.25;;;11.50;89.90;;;;;;5089927;28;20047;-72
2022/03/20 11:15:29;;;;;;;28.00;19.08;;;11.60;88.80;;;;;;5072987;28;20043;-72
2022/03/20 11:17:57;;;;;;;28.40;19.30;;;11.60;88.90;;;;;;5056390;28;20593;-72
2022/03/20 11:20:31;;;;;;;26.05;20.05;;;11.70;89.50;;;;;;5074016;28;20036;-72
2022/03/20 11:23:05;;;;;;;28.27;20.15;;;11.80;87.80;;;;;;5092284;28;20054;-72
2022/03/20 11:25:37;;;;;;;;;;;11.90;86.50;;;;;;5061765;28;20525;-72
2022/03/20 11:28:10;;;;;;;28.10;19.40;;;11.90;86.80;;;;;;5091516;28;19920;-72
2022/03/20 11:30:44;;;;;;;26.50;19.17;;;12.00;83.20;;;;;;5074608;28;20040;-72
2022/03/20 11:33:20;;;;;;;28.98;20.35;;;12.10;84.60;;;;;;5090633;28;20040;-71
2022/03/20 11:35:52;;;;;;;28.50;18.58;;;12.20;85.10;;;;;;5088533;28;20457;-71
2022/03/20 11:38:25;;;;;;;26.38;18.92;;;12.30;83.40;;;;;;5091199;28;20123;-71
2022/03/20 11:41:07;;;;;;;25.85;17.70;;;12.40;82.60;;;;;;5073041;28;20028;-72
2022/03/20 11:43:41;;;;;;;26.15;18.80;;;12.40;81.40;;;;;;5057475;28;20052;-73
2022/03/20 11:46:20;;;;;;;27.52;18.35;;;12.50;77.90;;;;;;5091591;28;20050;-72
2022/03/20 11:49:17;;;;;;;28.23;20.05;;;12.50;77.50;;;;;;5091657;28;20040;-72
2022/03/20 11:52:09;;;;;;;25.92;19.40;;;12.60;77.80;;;;;;5091700;28;20044;-72
2022/03/20 11:54:40;;;;;;;27.08;18.50;;;12.70;77.00;;;;;;5073831;28;20032;-71
2022/03/20 11:57:28;;;;;;;30.10;19.10;;;12.80;75.70;;;;;;5074371;28;20036;-72
2022/03/20 12:00:18;;;;;;;26.75;18.73;;;12.90;76.80;;;;;;5074099;28;20042;-72
2022/03/20 12:03:19;;;;;;;27.45;18.92;;;13.10;79.10;;;;;;5069011;28;20036;-72
2022/03/20 12:06:08;;;;;;;27.42;19.25;;;13.20;78.10;;;;;;5080527;28;20132;-72
2022/03/20 12:08:55;;;;;;;28.23;20.15;;;13.30;76.10;;;;;;5078854;28;20115;-73
2022/03/20 12:11:50;;;;;;;26.98;19.83;;;13.40;76.70;;;;;;5066043;28;20044;-72
2022/03/20 12:14:41;;;;;;;28.13;20.40;;;13.60;75.70;;;;;;5091077;28;20040;-72
2022/03/20 12:17:13;;;;;;;28.92;19.65;;;13.70;75.80;;;;;;5091378;28;20135;-72
2022/03/20 12:19:53;;;;;;;28.23;20.75;;;13.70;76.20;;;;;;5091203;28;20401;-73
2022/03/20 12:22:25;;;;;;;29.02;20.98;;;13.80;75.10;;;;;;5090237;28;20040;-74
2022/03/20 12:25:04;;;;;;;26.67;18.80;;;13.90;74.80;;;;;;5089295;28;20054;-72
2022/03/20 12:27:36;;;;;;;24.77;18.50;;;13.90;75.30;;;;;;5072488;28;20039;-72
2022/03/20 12:30:16;;;;;;;23.85;18.40;;;14.10;73.10;;;;;;5070788;28;20044;-72
2022/03/20 12:32:47;;;;;;;24.50;18.50;;;14.10;72.50;;;;;;5085287;28;20046;-72
2022/03/20 12:35:24;;;;;;;22.60;17.65;;;14.20;70.00;;;;;;5081145;28;20051;-72
2022/03/20 12:37:56;;;;;;;27.10;18.40;;;14.20;69.10;;;;;;5056636;28;20047;-72
2022/03/20 12:40:34;;;;;;;25.80;18.73;;;14.30;71.10;;;;;;5072722;28;20508;-72
2022/03/20 12:43:10;;;;;;;22.52;18.05;;;14.30;70.60;;;;;;5072646;28;20044;-72
2022/03/20 12:45:40;;;;;;;27.77;18.65;;;14.40;69.40;;;;;;5066452;28;20043;-73
2022/03/20 12:48:08;;;;;;;23.63;17.60;;;14.40;68.80;;;;;;5078311;28;20502;-72
2022/03/20 12:50:43;;;;;;;24.02;17.00;;;14.50;66.90;;;;;;5095289;28;20038;-72
2022/03/20 12:53:16;;;;;;;24.65;17.52;;;14.50;66.90;;;;;;5060245;28;20052;-71
2022/03/20 12:55:59;;;;;;;22.08;17.73;;;14.50;65.90;;;;;;5061303;28;20058;-72
2022/03/20 12:58:31;;;;;;;22.05;17.25;;;14.70;66.20;;;;;;5095107;28;20044;-71
2022/03/20 13:01:10;;;;;;;20.15;16.20;;;14.70;65.90;;;;;;5067806;28;20409;-71
2022/03/20 13:03:42;;;;;;;26.55;16.77;;;14.80;65.20;;;;;;5087878;28;20044;-74
2022/03/20 13:06:14;;;;;;;22.35;15.00;;;14.80;63.50;;;;;;5094561;28;20585;-72
2022/03/20 13:08:46;;;;;;;21.33;15.80;;;14.80;64.30;;;;;;5077177;28;20044;-73
2022/03/20 13:14:15;;;;;;;22.87;16.83;;;14.90;63.60;;;;;;5094911;28;20044;-71
2022/03/20 13:16:48;;;;;;;23.95;16.25;;;15.00;63.40;;;;;;5074730;28;20036;-72
2022/03/20 13:19:27;;;;;;;21.45;15.63;;;15.10;63.80;;;;;;5071401;28;20055;-72
2022/03/20 13:22:12;;;;;;;21.65;15.82;;;15.20;62.50;;;;;;5098124;28;20063;-72
2022/03/20 13:24:46;;;;;;;19.02;14.70;;;15.20;62.60;;;;;;5064856;28;20047;-72
2022/03/20 13:27:18;;;;;;;21.05;15.40;;;15.20;60.20;;;;;;5088561;28;20052;-71
2022/03/20 13:29:53;;;;;;;18.95;14.30;;;15.30;61.00;;;;;;5075835;28;20064;-71
2022/03/20 13:32:24;;;;;;;24.05;16.70;;;15.30;58.70;;;;;;5073401;28;20042;-72
2022/03/20 13:34:51;;;;;;;19.10;15.18;;;15.30;58.70;;;;;;5057313;28;20142;-72
2022/03/20 13:37:23;;;;;;;18.65;14.45;;;15.30;59.20;;;;;;5076861;28;20032;-71
2022/03/20 13:39:55;;;;;;;18.73;14.57;;;15.30;58.80;;;;;;5059955;28;20461;-71